• Join FlightAware (Why Join?)
  • Login
  • US Flag 
10:19PM EDT


 

Airport Tracker/Info


-or-


 

Live Flight TrackerFlight Track Log ✈ DAL1214 ✈ 28-Apr-2013 ✈ KATL - KMHT

Flight Track Log - Related Links

Times and Time Zones

All times are in EDT time to prevent confusion due to time zone crossing. See the DAL1214 flight status page for this flight to view local times or setup timezone preferences in your user account.

Time Position Orientation Groundspeed Altitude Reporting Facility
EDT Latitude Longitude Course Direction KTS MPH feet Rate Location/Type
07:07PM 33.6497 -84.3483 North 438 504 3,000  Level Atlanta Center
07:08PM 33.6708 -84.2633 73° East 301 346 5,100 2,160 Climbing Atlanta Center
07:09PM 33.7147 -84.1861 56° Northeast 287 330 7,400 2,340 Climbing Atlanta Center
07:10PM 33.7878 -84.1814 North 316 364 9,800 1,260 Climbing Atlanta Center
07:11PM 34.1075 -84.2667 North  Level FlightAware Approximate
07:11PM 33.8756 -84.2089 345° North 316 364 10,000  Level Atlanta Center
07:12PM 34.2412 -84.2667 North  Level FlightAware Approximate
07:12PM 33.9464 -84.2742 323° Northwest 306 352 11,400  Level Atlanta Center
07:13PM 34.0467 -84.2769 359° North 328 377 13,800 2,460 Climbing Atlanta Center
07:14PM 34.1508 -84.2772 360° North 363 418 16,400 2,100 Climbing Atlanta Center
07:15PM 34.2594 -84.2775 360° North 379 436 18,100 1,620 Climbing Atlanta Center
07:16PM 34.3681 -84.2578 North 385 443 19,700 1,500 Climbing Atlanta Center
07:17PM 34.4808 -84.2328 10° North 395 455 21,200 1,500 Climbing Atlanta Center
07:18PM 34.5956 -84.2078 10° North 408 470 22,800 1,440 Climbing Atlanta Center
07:19PM 34.7208 -84.1778 11° North 418 481 24,100 1,200 Climbing Atlanta Center
07:20PM 34.8419 -84.1500 11° North 423 487 25,300 1,080 Climbing Atlanta Center
07:21PM 34.9672 -84.1197 11° North 435 501 26,300 1,080 Climbing Atlanta Center
07:22PM 35.0903 -84.0894 11° North 447 514 27,500 780 Climbing Atlanta Center
07:23PM 35.2197 -84.0592 11° North 453 521 27,900 600 Climbing Atlanta Center
07:24PM 35.3511 -84.0261 12° North 468 539 28,800 840 Climbing Atlanta Center
07:25PM 35.4847 -83.9928 11° North 473 544 29,600 1,080 Climbing Atlanta Center
07:26PM 35.6181 -83.9622 11° North 483 556 31,000 1,140 Climbing Atlanta Center
07:27PM 35.7494 -83.9286 12° North 483 556 31,900 660 Climbing Atlanta Center
07:28PM 35.8808 -83.8953 12° North 483 556 32,400 540 Climbing Atlanta Center
07:29PM 36.0039 -83.8308 23° Northeast 476 548 33,000 300 Climbing Atlanta Center
07:30PM 36.1247 -83.7533 27° Northeast 481 554 33,000  Level Atlanta Center
07:31PM 36.2456 -83.6758 27° Northeast 481 554 33,000  Level Atlanta Center
07:32PM 36.4097 -83.5683 28° Northeast 487 560 33,000  Level Indianapolis Center
07:33PM 36.5419 -83.4864 26° Northeast 496 571 33,000  Level Indianapolis Center
07:35PM 36.6633 -83.4017 29° Northeast 499 574 33,000  Level Indianapolis Center
07:36PM 36.7753 -83.2942 38° Northeast 509 586 33,000  Level Indianapolis Center
07:37PM 36.8889 -83.1858 37° Northeast 511 588 33,000  Level Indianapolis Center
07:38PM 37.0053 -83.0764 37° Northeast 514 592 33,000  Level Indianapolis Center
07:39PM 37.1219 -82.9656 37° Northeast 516 594 33,000  Level Indianapolis Center
07:40PM 37.2367 -82.8564 37° Northeast 512 589 33,000  Level Indianapolis Center
07:41PM 37.3697 -82.7300 37° Northeast 513 590 33,000  Level Indianapolis Center
07:42PM 37.4847 -82.6233 36° Northeast 512 589 33,000 -420 Level Indianapolis Center
07:43PM 37.5989 -82.5142 37° Northeast 513 590 32,200 -1,380 Descending Indianapolis Center
07:44PM 37.7114 -82.4019 38° Northeast 515 593 30,200 -1,560 Descending Indianapolis Center
07:45PM 37.8269 -82.2897 37° Northeast 521 600 29,000 -600 Descending Indianapolis Center
07:46PM 37.9428 -82.1764 38° Northeast 524 603 29,000  Level Indianapolis Center
07:47PM 38.0747 -82.0467 38° Northeast 532 612 29,000  Level Indianapolis Center
07:48PM 38.1900 -81.9311 38° Northeast 529 609 29,000  Level Indianapolis Center
07:49PM 38.3058 -81.8164 38° Northeast 528 608 29,000  Level Indianapolis Center
07:50PM 38.4114 -81.6869 44° Northeast 526 605 29,000  Level Indianapolis Center
07:51PM 38.5072 -81.5483 49° Northeast 527 606 29,000  Level Indianapolis Center
07:52PM 38.6217 -81.3825 49° Northeast 531 611 29,000  Level Indianapolis Center
07:53PM 38.7181 -81.2461 48° Northeast 528 608 29,000  Level Indianapolis Center
07:54PM 38.8150 -81.1058 48° Northeast 529 609 29,000  Level Indianapolis Center
07:55PM 38.9131 -80.9636 48° Northeast 535 616 29,000  Level Indianapolis Center
07:56PM 39.0111 -80.8206 49° Northeast 534 615 29,000  Level Indianapolis Center
07:57PM 39.1106 -80.6819 47° Northeast 531 611 29,000  Level Indianapolis Center
07:58PM 39.2294 -80.5175 47° Northeast 524 603 29,000 -480 Level Indianapolis Center
07:59PM 39.3239 -80.3836 48° Northeast 505 581 28,100 -1,020 Descending Indianapolis Center
08:00PM 39.4142 -80.2556 48° Northeast 488 562 27,000 -720 Descending Indianapolis Center
08:01PM 39.4744 -80.1769 45° Northeast 482 555 27,000  Level Cleveland Center
08:02PM 39.5614 -80.0525 48° Northeast 472 543 27,000  Level Cleveland Center
08:03PM 39.6464 -79.9281 48° Northeast 466 536 27,000  Level Cleveland Center
08:04PM 39.7331 -79.8003 49° Northeast 466 536 27,000  Level Cleveland Center
08:05PM 39.8175 -79.6722 49° Northeast 466 536 27,000  Level Cleveland Center
08:06PM 39.9039 -79.5467 48° Northeast 466 536 27,000  Level Cleveland Center
08:07PM 39.9883 -79.4233 48° Northeast 461 531 27,000  Level Cleveland Center
08:08PM 40.0581 -79.3083 52° Northeast 461 531 27,000  Level Cleveland Center
08:09PM 40.1461 -79.1817 48° Northeast 461 531 27,000  Level Cleveland Center
08:10PM 40.2300 -79.0519 50° Northeast 461 531 27,000  Level Cleveland Center
08:11PM 40.3136 -78.9247 49° Northeast 461 531 27,000  Level Cleveland Center
08:12PM 40.3992 -78.7947 49° Northeast 461 531 27,000  Level Cleveland Center
08:14PM 40.5853 -78.5111 49° Northeast 472 543 27,000  Level New York Center
08:15PM 40.6731 -78.3786 49° Northeast 472 543 27,000  Level New York Center
08:16PM 40.7564 -78.2481 50° Northeast 472 543 27,000  Level New York Center
08:17PM 40.8397 -78.1172 50° Northeast 472 543 27,000  Level New York Center
08:18PM 40.9139 -77.9961 51° Northeast 472 543 27,000  Level New York Center
08:19PM 40.9831 -77.8494 58° Northeast 466 536 27,000  Level New York Center
08:20PM 41.0503 -77.7022 59° Northeast 466 536 27,000  Level New York Center
08:21PM 41.1150 -77.5544 60° Northeast 461 531 27,000  Level New York Center
08:23PM 41.2439 -77.2611 60° Northeast 461 531 27,000  Level New York Center
08:24PM 41.3061 -77.1125 61° Northeast 456 525 27,000 -420 Level New York Center
08:25PM 41.3700 -76.9719 59° Northeast 451 519 26,200 -1,020 Descending New York Center
08:26PM 41.4361 -76.8175 60° Northeast 440 506 25,000 -600 Descending New York Center
08:27PM 41.4950 -76.6814 60° Northeast 430 495 25,000  Level New York Center
08:28PM 41.5539 -76.5425 60° Northeast 425 489 25,000  Level New York Center
08:29PM 41.6128 -76.4033 60° Northeast 425 489 25,000  Level New York Center
08:31PM 41.7003 -76.1969 60° Northeast 419 482 25,000  Level Boston Center
08:32PM 41.7478 -76.0828 61° Northeast 424 488 25,000  Level Boston Center
08:33PM 41.8175 -75.9169 61° Northeast 430 495 25,000  Level Boston Center
08:34PM 41.8761 -75.7750 61° Northeast 430 495 25,000  Level Boston Center
08:35PM 41.9322 -75.6383 61° Northeast 430 495 25,000  Level Boston Center
08:36PM 41.9903 -75.4989 61° Northeast 424 488 25,000  Level Boston Center
08:37PM 42.0461 -75.3589 62° Northeast 424 488 25,000  Level Boston Center
08:38PM 42.1078 -75.2219 59° Northeast 424 488 25,000  Level Boston Center
08:39PM 42.1761 -75.0736 58° Northeast 429 494 25,000  Level Boston Center
08:40PM 42.2375 -74.9331 59° Northeast 424 488 25,000  Level Boston Center
08:41PM 42.3031 -74.7925 58° Northeast 430 495 25,000  Level Boston Center
08:42PM 42.3642 -74.6544 59° Northeast 430 495 25,000  Level Boston Center
08:43PM 42.4272 -74.5217 57° Northeast 430 495 25,000  Level Boston Center
08:44PM 42.4858 -74.3828 60° Northeast 425 489 25,000  Level Boston Center
08:45PM 42.5136 -74.2231 77° East 414 476 25,000 -540 Level Boston Center
08:46PM 42.5389 -74.0689 77° East 419 482 24,000 -960 Descending Boston Center
08:47PM 42.5617 -73.9144 79° East 414 476 23,100 -1,140 Descending Boston Center
08:48PM 42.5822 -73.7711 79° East 404 465 21,800 -1,500 Descending Boston Center
08:49PM 42.6047 -73.6275 78° East 393 452 20,200 -1,380 Descending Boston Center
08:50PM 42.6247 -73.4869 79° East 388 447 19,100 -600 Descending Boston Center
08:51PM 42.6447 -73.3489 79° East 375 432 19,000 -60 Descending Boston Center
08:52PM 42.6644 -73.2081 79° East 375 432 19,000  Level Boston Center
08:53PM 42.6822 -73.0700 80° East 370 426 19,000  Level Boston Center
08:54PM 42.7014 -72.9600 77° East 370 426 19,000 -300 Level Boston Center
08:55PM 42.7228 -72.8075 79° East 370 426 18,400 -900 Descending Boston Center
08:56PM 42.7400 -72.6747 80° East 365 420 17,300 -1,500 Descending Boston Center
08:57PM 42.7589 -72.5392 79° East 365 420 15,400 -1,680 Descending Boston Center
08:58PM 42.7775 -72.4033 79° East 365 420 14,000 -1,800 Descending Boston Center
08:59PM 42.7942 -72.2758 80° East 358 412 11,900 -1,800 Descending Boston Center
09:00PM 42.8022 -72.1431 85° East 327 376 10,500 -1,200 Descending Boston Center
09:01PM 42.8208 -72.0494 75° East 292 336 9,500 -1,320 Descending Boston Center
09:02PM 42.8661 -71.9528 57° Northeast 276 318 7,900 -1,560 Descending Boston Center
09:03PM 42.9033 -71.8733 57° Northeast 276 318 6,400 -1,440 Descending Boston Center
09:04PM 42.9508 -71.7792 55° Northeast 276 318 5,100 -1,200 Descending Boston Center
09:05PM 42.9856 -71.6964 60° Northeast 276 318 4,100 -1,080 Descending Boston Center
09:06PM 43.0247 -71.5994 61° Northeast 271 312 3,000 -1,140 Descending Boston Center